Terminal Aerodrome Forecast
Issued by NWS Twin Cities, MN

Home | Current Version | Previous Version | Graphics & Text | Print | Product List | Glossary On
Versions: 1 2 3 4 5 6 7 8 9 10 11 12 13 14 15 16 17 18 19 20 21 22 23 24 25 26
000
FTUS43 KMPX 032031 AAA
TAFMSP
TAF AMD
KMSP 032031Z 0321/0424 24007KT P6SM SCT050 SCT250
     FM040200 23004KT P6SM SCT070 SCT250
     FM040800 VRB03KT 6SM BR SCT250
     FM041600 17006KT P6SM SCT050 SCT250=

USA.gov is the U.S. government's official web portal to all federal, state and local government web resources and services.